Wednesday, July 30, 2014
05:07 UTC
  |  Log In   |  Register Free
Airport Search:

Coleman Municipal Airport
(KCOM)

Coleman Municipal Airport Diagram
No Airport Diagram Available

FAA data valid effective July 24, 2014 until September 18, 2014 (unless otherwise noted).

 
 
 
 
 
 
 
 
 
 
 
 
 
 

Current Aviation Weather for Coleman Municipal Airport (KCOM)

The most recent METAR observation for KCOM was updated at: 1835 UTC
METAR Summary (Translated METAR)
KCOM
281835Z AUTO 14003KT 10SM BKN075 OVC085 34/15 A3016 RMK AO2 T03390150
KBWD
(23 nm SE from KCOM)
281835Z AUTO 11008KT 10SM BKN075 34/16 A3014 RMK AO2
TAF Summary (Translated TAF)
KABI
(37 nm NW from KCOM)
300228Z 3002/3024 11010KT P6SM -SHRA BKN070 FM300330 12008KT P6SM BKN120 FM300600 17011KT P6SM BKN200 FM301500 19016G24KT P6SM SCT100
  Airport Weather Conditions for KCOM

 Current Weather at COM
82° F
Light Rain
East winds at 3.5 mph
COM NOAA Radar

Pressure: 30.11 in
Humidity: 52%
Wind: East at 3.5 MPH (3 KT)
Dew Point: 62.8°F
Visibility: 10.00 mi


Airport Weather Forecast for KCOM

Translated METAR and TAF for KCOM
Translated METAR for KCOM (0500 UTC 30 July 2014)
found at http://aviationweather.gov/adds/metars/
 
METAR text: KCOM 300455Z AUTO 15007KT 10SM SCT100 26/19 A3008 RMK AO2 T02600191
Conditions at: KCOM (COLEMAN MUNI , TX, US) observed 0455 UTC 30 July 2014
Temperature: 26.0°C (79°F)
Dewpoint: 19.1°C (66°F) [RH = 66%]
Pressure (altimeter): 30.08 inches Hg (1018.7 mb)
Winds: from the SSE (150 degrees) at 8 MPH (7 knots; 3.6 m/s)
Visibility: 10 or more miles (16+ km)
Ceiling: at least 12,000 feet AGL
Clouds: scattered clouds at 10000 feet AGL
Weather: automated observation with no human augmentation;
there may or may not be significant weather present at this time
Translated TAF for KCOM

There is no translated TAF available for this airport

Find All Airport Services Find A Hotel Find A Rental Car Find A Golf Course Find A Restaurant $100 Hamburger



FBO's on the Field
FBO Company Facility Photos Services Transportation Aviation Fuel Prices: Prices include tax
Catering Weather Repair Courtesy Rental Type 100LL JetA JetA+ MOGAS 8087
 
Add another FBO Facility Photos Catering Weather Repair Courtesy Rental Type 100LL JetA JetA+ MOGAS 8087
Services Transportation Aviation Fuel Prices: Prices include tax
There are no FBO's currently reporting fuel at COM. List your FBO now


GlobalAir.com Airport Resource Center model-print
model-print
model-print
model-print